Le Sueur, Minnesota
Current Conditions -  °F | °C
As of 11:55 AM on Monday 24 Nov 2014 (Local Time) from KMKT Reporting Station
Overcast Overcast  
Wind Chill: -2°   Ceiling: 2200
Heat Index: 18°   Visibility: 6mi
Dew Point:   Wind: 30mph
Humidity: 68%   Direction: 300°WNW
Pressure: 29.52"   Gusts: 37mph
Location:  44.46°N, 93.92°W
Report Text: KMKT 241755Z AUTO 30026G32KT 6SM BKN022 OVC030 M08/M13 A2952 RMK AO1 11060 21080 52017
Loading
Personal Weather Stations






























Interactive Weather Map New forecast layout! Learn more

10-Day Weather Forecast

Advertisements
Track Severe Weather on mobile